createdAt,value
2017-11-14T01:36:10.135Z,98.20
2017-11-14T01:36:10.710Z,99.05
2017-11-14T01:36:11.310Z,98.20
2017-11-14T01:36:11.909Z,98.68
2017-11-14T01:36:12.510Z,97.92
2017-11-14T01:36:13.109Z,97.92
2017-11-14T01:36:13.712Z,98.01
2017-11-14T01:36:14.309Z,98.11
2017-11-14T01:37:08.814Z,98.11
2017-11-14T01:37:09.386Z,98.20
2017-11-14T01:37:09.986Z,97.92
2017-11-14T01:37:10.585Z,98.20
2017-11-14T01:37:11.186Z,98.30
2017-11-14T01:37:11.785Z,98.11
2017-11-14T01:37:12.385Z,98.20
2017-11-14T01:37:12.983Z,98.01
2017-11-14T01:38:07.489Z,98.58
2017-11-14T01:38:08.063Z,98.68
2017-11-14T01:38:08.671Z,98.20
2017-11-14T01:38:09.263Z,98.39
2017-11-14T01:38:09.861Z,98.77
2017-11-14T01:38:10.474Z,98.39
2017-11-14T01:38:11.061Z,98.20
2017-11-14T01:38:11.661Z,98.20
2017-11-14T01:39:05.142Z,98.68
2017-11-14T01:39:05.715Z,98.39
2017-11-14T01:39:06.315Z,98.49
2017-11-14T01:39:06.914Z,98.30
2017-11-14T01:39:07.513Z,98.68
2017-11-14T01:39:08.113Z,98.49
2017-11-14T01:39:08.713Z,98.30
2017-11-14T01:39:09.312Z,98.39
2017-11-14T01:40:02.794Z,97.63
2017-11-14T01:40:03.368Z,97.92
2017-11-14T01:40:03.970Z,98.77
2017-11-14T01:40:04.566Z,98.68
2017-11-14T01:40:05.165Z,97.82
2017-11-14T01:40:05.769Z,98.77
2017-11-14T01:40:06.366Z,97.92
2017-11-14T01:40:06.966Z,98.39
2017-11-14T01:41:03.012Z,97.92
2017-11-14T01:41:03.578Z,98.68
2017-11-14T01:41:04.180Z,98.58
2017-11-14T01:41:04.777Z,98.96
2017-11-14T01:41:05.379Z,98.86
2017-11-14T01:41:05.977Z,98.49
2017-11-14T01:42:22.571Z,98.86
2017-11-14T01:42:23.146Z,98.86
2017-11-14T01:42:23.746Z,98.77
2017-11-14T01:42:24.342Z,98.11
2017-11-14T01:43:19.301Z,98.68
2017-11-14T01:43:19.876Z,98.68
2017-11-14T01:43:20.474Z,98.68
2017-11-14T01:43:21.088Z,98.58
2017-11-14T01:43:21.677Z,98.68
2017-11-14T01:43:22.277Z,98.01
2017-11-14T01:44:16.850Z,97.92
2017-11-14T01:44:17.424Z,98.01
2017-11-14T01:44:18.024Z,97.73
2017-11-14T01:44:18.624Z,97.82
2017-11-14T01:44:19.223Z,97.82
2017-11-14T01:44:19.824Z,97.92
2017-11-14T01:44:20.422Z,97.92
2017-11-14T01:45:14.910Z,98.01
2017-11-14T01:45:15.487Z,98.11
2017-11-14T01:45:16.084Z,98.01
2017-11-14T01:45:16.685Z,98.01
2017-11-14T01:45:17.284Z,98.11
2017-11-14T01:45:17.885Z,97.92
2017-11-14T01:45:18.486Z,98.11
2017-11-14T01:45:19.085Z,98.01
2017-11-14T01:46:12.571Z,98.30
2017-11-14T01:46:13.137Z,98.30
2017-11-14T01:46:13.736Z,98.20
2017-11-14T01:46:14.336Z,98.11
2017-11-14T01:46:14.935Z,98.11
2017-11-14T01:46:15.537Z,98.30
2017-11-14T01:46:16.136Z,98.30
2017-11-14T01:46:16.736Z,98.01
2017-11-14T01:47:11.237Z,97.73
2017-11-14T01:47:11.813Z,97.92
2017-11-14T01:47:12.412Z,98.01
2017-11-14T01:47:13.013Z,97.92
2017-11-14T01:47:13.613Z,97.82
2017-11-14T01:47:14.211Z,98.20
2017-11-14T01:47:14.813Z,97.73
2017-11-14T01:47:15.411Z,97.73
2017-11-14T01:48:08.891Z,97.54
2017-11-14T01:48:09.466Z,97.63
2017-11-14T01:48:10.066Z,97.63
2017-11-14T01:48:10.665Z,97.82
2017-11-14T01:48:11.265Z,97.82
2017-11-14T01:48:11.866Z,97.54
2017-11-14T01:48:12.465Z,97.54
2017-11-14T01:48:13.066Z,97.82
2017-11-14T01:49:06.545Z,97.73
2017-11-14T01:49:07.117Z,97.73
2017-11-14T01:49:07.716Z,97.44
2017-11-14T01:49:08.317Z,97.63
2017-11-14T01:49:08.917Z,97.54
2017-11-14T01:49:09.517Z,97.63
2017-11-14T01:49:10.126Z,97.73
2017-11-14T01:49:10.724Z,97.73
2017-11-14T01:50:04.194Z,97.54
2017-11-14T01:50:04.768Z,97.35
2017-11-14T01:50:05.368Z,97.44
2017-11-14T01:50:05.971Z,97.54
2017-11-14T01:50:06.568Z,97.35
2017-11-14T01:50:07.167Z,97.54
2017-11-14T01:50:07.767Z,97.54
2017-11-14T01:50:08.367Z,97.63
2017-11-14T01:51:01.849Z,97.35
2017-11-14T01:51:02.421Z,97.16
2017-11-14T01:51:03.021Z,97.16
2017-11-14T01:51:03.622Z,97.16
2017-11-14T01:51:04.220Z,97.35
2017-11-14T01:51:04.820Z,97.16
2017-11-14T01:51:05.419Z,97.35
2017-11-14T01:51:06.022Z,97.16
2017-11-14T01:51:59.497Z,96.97
2017-11-14T01:52:00.074Z,96.88
2017-11-14T01:52:00.673Z,96.97
2017-11-14T01:52:01.273Z,97.06
2017-11-14T01:52:01.872Z,96.88
2017-11-14T01:52:02.472Z,96.97
2017-11-14T01:52:03.078Z,96.97
2017-11-14T01:52:03.672Z,96.88
2017-11-14T01:52:57.152Z,96.78
2017-11-14T01:52:57.723Z,97.06
2017-11-14T01:52:58.321Z,97.06
2017-11-14T01:52:58.922Z,97.06
2017-11-14T01:52:59.523Z,97.06
2017-11-14T01:53:00.122Z,96.97
2017-11-14T01:53:00.722Z,97.06
2017-11-14T01:53:01.328Z,97.16
2017-11-14T01:53:55.825Z,97.44
2017-11-14T01:53:56.400Z,97.44
2017-11-14T01:53:56.999Z,97.25
2017-11-14T01:53:57.600Z,97.25
2017-11-14T01:53:58.198Z,97.16
2017-11-14T01:53:58.801Z,97.25
2017-11-14T01:53:59.399Z,97.44
2017-11-14T01:53:59.999Z,97.25
2017-11-14T01:54:54.500Z,96.97
2017-11-14T01:54:55.074Z,96.78
2017-11-14T01:54:55.674Z,96.78
2017-11-14T01:54:56.274Z,96.69
2017-11-14T01:54:56.873Z,96.78
2017-11-14T01:54:57.477Z,96.78
2017-11-14T01:54:58.074Z,96.78
2017-11-14T01:54:58.672Z,96.97
2017-11-14T01:55:52.155Z,96.31
2017-11-14T01:55:52.728Z,96.31
2017-11-14T01:55:53.326Z,96.31
2017-11-14T01:55:53.927Z,96.50
2017-11-14T01:55:54.527Z,96.31
2017-11-14T01:55:55.130Z,96.31
2017-11-14T01:55:55.726Z,96.12
2017-11-14T01:55:56.328Z,96.50
2017-11-14T01:56:49.808Z,96.40
2017-11-14T01:56:50.378Z,96.59
2017-11-14T01:56:50.978Z,96.50
2017-11-14T01:56:51.580Z,96.59
2017-11-14T01:56:52.179Z,96.40
2017-11-14T01:56:52.780Z,96.59
2017-11-14T01:56:53.378Z,96.50
2017-11-14T01:56:53.978Z,96.59
2017-11-14T01:57:47.460Z,96.40
2017-11-14T01:57:48.031Z,96.40
2017-11-14T01:57:48.631Z,96.40
2017-11-14T01:57:49.234Z,96.40
2017-11-14T01:57:49.829Z,96.59
2017-11-14T01:57:50.429Z,96.31
2017-11-14T01:57:51.030Z,96.59
2017-11-14T01:57:51.631Z,96.31
2017-11-14T01:58:46.130Z,96.31
2017-11-14T01:58:46.705Z,96.31
2017-11-14T01:58:47.309Z,96.31
2017-11-14T01:58:47.904Z,96.31
2017-11-14T01:58:48.505Z,96.02
2017-11-14T01:58:49.106Z,96.31
2017-11-14T01:58:49.706Z,96.40
2017-11-14T01:58:50.304Z,96.02
2017-11-14T01:59:44.805Z,96.31
2017-11-14T01:59:45.382Z,95.83
2017-11-14T01:59:45.981Z,95.93
2017-11-14T01:59:46.581Z,95.93
2017-11-14T01:59:47.179Z,95.93
2017-11-14T01:59:47.781Z,96.12
2017-11-14T01:59:48.382Z,95.93
2017-11-14T01:59:48.980Z,96.02
2017-11-14T02:00:42.458Z,95.93
2017-11-14T02:00:43.034Z,96.02
2017-11-14T02:00:43.632Z,95.83
2017-11-14T02:00:44.233Z,95.83
2017-11-14T02:00:44.832Z,96.02
2017-11-14T02:00:45.431Z,95.83
2017-11-14T02:00:46.034Z,95.83
2017-11-14T02:00:46.631Z,96.02
2017-11-14T02:01:40.116Z,95.36
2017-11-14T02:01:40.684Z,95.55
2017-11-14T02:01:41.283Z,95.36
2017-11-14T02:01:41.883Z,95.17
2017-11-14T02:01:42.482Z,95.55
2017-11-14T02:01:43.083Z,95.55
2017-11-14T02:01:43.682Z,95.26
2017-11-14T02:01:44.281Z,95.36
2017-11-14T02:02:37.764Z,95.36
2017-11-14T02:02:38.336Z,95.45
2017-11-14T02:02:38.941Z,95.83
2017-11-14T02:02:39.539Z,95.64
2017-11-14T02:02:40.136Z,95.64
2017-11-14T02:02:40.735Z,95.45
2017-11-14T02:02:41.337Z,95.36
2017-11-14T02:02:41.936Z,95.64
2017-11-14T02:03:35.412Z,95.55
2017-11-14T02:03:35.988Z,95.55
2017-11-14T02:03:36.588Z,95.64
2017-11-14T02:03:37.194Z,95.36
2017-11-14T02:03:37.787Z,95.36
2017-11-14T02:03:38.389Z,95.55
2017-11-14T02:03:38.989Z,95.55
2017-11-14T02:03:39.590Z,95.55
2017-11-14T02:04:33.066Z,95.07
2017-11-14T02:04:33.639Z,95.07
2017-11-14T02:04:34.240Z,95.26
2017-11-14T02:04:34.847Z,95.07
2017-11-14T02:04:35.438Z,95.45
2017-11-14T02:04:36.039Z,95.07
2017-11-14T02:04:36.640Z,95.45
2017-11-14T02:04:37.238Z,95.45
2017-11-14T02:05:31.741Z,95.07
2017-11-14T02:05:32.317Z,94.98
2017-11-14T02:05:32.914Z,94.98
2017-11-14T02:05:33.523Z,94.98
2017-11-14T02:05:34.114Z,95.45
2017-11-14T02:05:34.714Z,95.36
2017-11-14T02:05:35.315Z,94.98
2017-11-14T02:05:35.914Z,95.07
2017-11-14T02:06:30.700Z,95.17
2017-11-14T02:06:31.202Z,95.55
2017-11-14T02:06:31.799Z,95.17
2017-11-14T02:06:32.399Z,95.55
2017-11-14T02:06:32.999Z,95.17
2017-11-14T02:06:33.597Z,95.26
2017-11-14T02:06:34.198Z,95.55
2017-11-14T02:06:34.799Z,95.55
2017-11-14T02:07:28.274Z,95.36
2017-11-14T02:07:28.849Z,94.98
2017-11-14T02:07:29.448Z,95.36
2017-11-14T02:07:30.048Z,95.26
2017-11-14T02:07:30.647Z,94.98
2017-11-14T02:07:31.251Z,95.36
2017-11-14T02:07:31.849Z,95.36
2017-11-14T02:07:32.451Z,95.26
2017-11-14T02:08:26.950Z,95.45
2017-11-14T02:08:27.522Z,95.45
2017-11-14T02:08:28.122Z,94.79
2017-11-14T02:08:28.724Z,95.07
2017-11-14T02:08:29.322Z,95.07
2017-11-14T02:08:29.922Z,95.17
2017-11-14T02:08:30.524Z,95.36
2017-11-14T02:08:31.124Z,95.36
2017-11-14T02:09:25.625Z,95.17
2017-11-14T02:09:26.199Z,95.36
2017-11-14T02:09:26.798Z,95.55
2017-11-14T02:09:27.397Z,95.64
2017-11-14T02:09:27.998Z,95.07
2017-11-14T02:09:28.598Z,95.55
2017-11-14T02:09:29.196Z,95.36
2017-11-14T02:09:29.796Z,95.36
2017-11-14T02:10:23.276Z,95.45
2017-11-14T02:10:23.856Z,95.26
2017-11-14T02:10:24.450Z,95.26
2017-11-14T02:10:25.051Z,95.26
2017-11-14T02:10:25.651Z,95.26
2017-11-14T02:10:26.254Z,94.89
2017-11-14T02:10:26.853Z,95.26
2017-11-14T02:10:27.451Z,95.36
2017-11-14T02:11:21.953Z,94.42
2017-11-14T02:11:22.527Z,95.07
2017-11-14T02:11:23.127Z,94.70
2017-11-14T02:11:23.725Z,94.23
2017-11-14T02:11:24.325Z,95.64
2017-11-14T02:11:24.925Z,95.17
2017-11-14T02:11:25.525Z,95.64
2017-11-14T02:11:26.124Z,94.70
2017-11-14T02:12:19.605Z,94.89
2017-11-14T02:12:20.181Z,94.70
2017-11-14T02:12:20.780Z,94.70
2017-11-14T02:12:21.377Z,94.79
2017-11-14T02:12:21.977Z,94.70
2017-11-14T02:12:22.577Z,94.89
2017-11-14T02:12:23.176Z,94.89
2017-11-14T02:12:23.781Z,94.70
2017-11-14T02:13:17.256Z,94.89
2017-11-14T02:13:17.833Z,94.79
2017-11-14T02:13:18.431Z,94.70
2017-11-14T02:13:19.034Z,94.79
2017-11-14T02:13:19.652Z,94.70
2017-11-14T02:13:20.235Z,94.89
2017-11-14T02:13:20.828Z,94.89
2017-11-14T02:13:21.427Z,94.70
2017-11-14T02:14:14.908Z,94.60
2017-11-14T02:14:15.481Z,94.51
2017-11-14T02:14:16.080Z,94.60
2017-11-14T02:14:16.681Z,94.51
2017-11-14T02:14:17.279Z,94.51
2017-11-14T02:14:17.880Z,94.60
2017-11-14T02:14:18.481Z,94.79
2017-11-14T02:14:19.081Z,94.32
2017-11-14T02:15:13.582Z,94.79
2017-11-14T02:15:14.156Z,94.60
2017-11-14T02:15:14.755Z,94.89
2017-11-14T02:15:15.355Z,94.79
2017-11-14T02:15:15.957Z,94.70
2017-11-14T02:15:16.555Z,94.70
2017-11-14T02:15:17.157Z,94.79
2017-11-14T02:15:17.757Z,94.79
2017-11-14T02:16:11.235Z,94.79
2017-11-14T02:16:11.810Z,94.79
2017-11-14T02:16:12.409Z,94.89
2017-11-14T02:16:13.010Z,94.79
2017-11-14T02:16:13.608Z,94.89
2017-11-14T02:16:14.208Z,94.79
2017-11-14T02:16:14.808Z,94.89
2017-11-14T02:16:15.409Z,94.79
2017-11-14T02:17:09.909Z,94.98
2017-11-14T02:17:10.485Z,94.51
2017-11-14T02:17:11.084Z,94.89
2017-11-14T02:17:11.685Z,94.98
2017-11-14T02:17:12.283Z,94.60
2017-11-14T02:17:12.884Z,95.07
2017-11-14T02:17:13.483Z,94.13
2017-11-14T02:17:14.082Z,94.98
2017-11-14T02:18:08.587Z,94.23
2017-11-14T02:18:09.162Z,94.32
2017-11-14T02:18:09.758Z,94.32
2017-11-14T02:18:10.359Z,94.13
2017-11-14T02:18:10.958Z,94.32
2017-11-14T02:18:11.558Z,94.32
2017-11-14T02:18:12.158Z,94.51
2017-11-14T02:18:12.759Z,94.70
2017-11-14T02:19:06.238Z,94.23
2017-11-14T02:19:06.813Z,94.13
2017-11-14T02:19:07.415Z,94.13
2017-11-14T02:19:08.012Z,94.51
2017-11-14T02:19:08.611Z,94.51
2017-11-14T02:19:09.224Z,94.13
2017-11-14T02:19:09.810Z,94.13
2017-11-14T02:19:10.410Z,94.42
2017-11-14T02:20:03.890Z,94.51
2017-11-14T02:20:04.464Z,94.32
2017-11-14T02:20:05.065Z,94.23
2017-11-14T02:20:05.666Z,93.75
2017-11-14T02:20:06.263Z,94.13
2017-11-14T02:20:06.862Z,94.51
2017-11-14T02:20:07.462Z,94.32
2017-11-14T02:20:08.063Z,93.94
2017-11-14T02:21:02.564Z,94.04
2017-11-14T02:21:03.139Z,94.13
2017-11-14T02:21:03.737Z,93.94
2017-11-14T02:21:04.337Z,94.04
2017-11-14T02:21:04.937Z,94.13
2017-11-14T02:21:05.538Z,93.84
2017-11-14T02:21:06.142Z,93.94
2017-11-14T02:21:06.735Z,93.56
2017-11-14T02:22:00.217Z,94.13
2017-11-14T02:22:00.791Z,94.04
2017-11-14T02:22:01.390Z,94.32
2017-11-14T02:22:01.991Z,94.04
2017-11-14T02:22:02.589Z,93.94
2017-11-14T02:22:03.189Z,94.04
2017-11-14T02:22:03.790Z,94.04
2017-11-14T02:22:04.389Z,94.04
2017-11-14T02:22:57.868Z,93.94
2017-11-14T02:22:58.441Z,93.94
2017-11-14T02:22:59.046Z,93.94
2017-11-14T02:22:59.642Z,94.04
2017-11-14T02:23:00.241Z,94.13
2017-11-14T02:23:00.842Z,93.75
2017-11-14T02:23:01.441Z,94.13
2017-11-14T02:23:02.044Z,93.75
2017-11-14T02:23:55.521Z,93.84
2017-11-14T02:23:56.093Z,93.65
2017-11-14T02:23:56.698Z,93.84
2017-11-14T02:23:57.293Z,93.75
2017-11-14T02:23:57.893Z,93.75
2017-11-14T02:23:58.494Z,93.84
2017-11-14T02:23:59.098Z,93.75
2017-11-14T02:23:59.693Z,93.84
2017-11-14T02:24:53.174Z,93.46
2017-11-14T02:24:53.746Z,93.65
2017-11-14T02:24:54.345Z,93.46
2017-11-14T02:24:54.946Z,93.84
2017-11-14T02:24:55.546Z,93.46
2017-11-14T02:24:56.146Z,93.46
2017-11-14T02:24:56.744Z,93.94
2017-11-14T02:24:57.346Z,93.65
2017-11-14T02:25:50.823Z,93.56
2017-11-14T02:25:51.397Z,93.37
2017-11-14T02:25:51.997Z,93.46
2017-11-14T02:25:52.598Z,93.37
2017-11-14T02:25:53.197Z,93.37
2017-11-14T02:25:53.797Z,93.37
2017-11-14T02:25:54.399Z,93.37
2017-11-14T02:25:54.997Z,93.37
2017-11-14T02:26:48.476Z,93.37
2017-11-14T02:26:49.061Z,93.37
2017-11-14T02:26:49.650Z,93.37
2017-11-14T02:26:50.248Z,93.46
2017-11-14T02:26:50.849Z,93.37
2017-11-14T02:26:51.474Z,93.46
2017-11-14T02:26:52.050Z,93.37
2017-11-14T02:26:52.649Z,93.37
2017-11-14T02:27:46.125Z,93.46
2017-11-14T02:27:46.701Z,93.56
2017-11-14T02:27:47.299Z,93.46
2017-11-14T02:27:47.900Z,93.75
2017-11-14T02:27:48.501Z,93.56
2017-11-14T02:27:49.100Z,93.75
2017-11-14T02:27:49.700Z,93.37
2017-11-14T02:27:50.300Z,93.46
2017-11-14T02:28:43.778Z,93.56
2017-11-14T02:28:44.352Z,93.46
2017-11-14T02:28:44.951Z,93.56
2017-11-14T02:28:45.552Z,93.46
2017-11-14T02:28:46.151Z,93.46
2017-11-14T02:28:46.754Z,93.46
2017-11-14T02:28:47.352Z,93.56
2017-11-14T02:28:47.952Z,93.46
2017-11-14T02:29:42.453Z,93.75
2017-11-14T02:29:43.027Z,93.56
2017-11-14T02:29:43.626Z,93.56
2017-11-14T02:29:44.226Z,93.56
2017-11-14T02:29:44.828Z,93.37
2017-11-14T02:29:45.426Z,93.65
2017-11-14T02:29:46.027Z,93.37
2017-11-14T02:29:46.625Z,93.65
2017-11-14T02:30:41.128Z,93.37
2017-11-14T02:30:41.703Z,93.37
2017-11-14T02:30:42.302Z,93.37
2017-11-14T02:30:42.902Z,93.27
2017-11-14T02:30:43.501Z,93.27
2017-11-14T02:30:44.102Z,93.65
2017-11-14T02:30:44.702Z,93.27
2017-11-14T02:30:45.303Z,93.46
2017-11-14T02:31:38.781Z,93.18
2017-11-14T02:31:39.355Z,92.99
2017-11-14T02:31:39.954Z,92.99
2017-11-14T02:31:40.558Z,93.08
2017-11-14T02:31:41.153Z,93.08
2017-11-14T02:31:41.754Z,92.99
2017-11-14T02:31:42.354Z,92.90
2017-11-14T02:31:42.967Z,93.08
2017-11-14T02:32:36.440Z,93.18
2017-11-14T02:32:37.006Z,92.90
2017-11-14T02:32:37.607Z,93.18
2017-11-14T02:32:38.206Z,92.90
2017-11-14T02:32:38.805Z,92.90
2017-11-14T02:32:39.406Z,93.18
2017-11-14T02:32:40.006Z,92.90
2017-11-14T02:32:40.604Z,93.27
2017-11-14T02:50:52.945Z,93.75
2017-11-14T02:50:53.513Z,93.37
2017-11-14T02:50:54.109Z,93.75
2017-11-14T02:50:54.709Z,93.37
2017-11-14T02:50:55.308Z,93.75
2017-11-14T02:50:55.908Z,93.37
2017-11-14T02:50:56.507Z,93.75
2017-11-14T02:50:57.111Z,93.65
2017-11-14T02:51:51.611Z,93.65
2017-11-14T02:51:52.186Z,93.56
2017-11-14T02:51:52.785Z,93.65
2017-11-14T02:51:53.385Z,93.65
2017-11-14T02:51:53.985Z,93.65
2017-11-14T02:51:54.584Z,93.65
2017-11-14T02:51:55.184Z,93.75
2017-11-14T02:51:55.783Z,93.37
2017-11-14T02:52:49.264Z,93.46
2017-11-14T02:52:49.837Z,93.37
2017-11-14T02:52:50.437Z,93.56
2017-11-14T02:52:51.037Z,93.37
2017-11-14T02:52:51.648Z,93.65
2017-11-14T02:52:52.241Z,93.37
2017-11-14T02:52:52.837Z,93.75
2017-11-14T02:52:53.437Z,93.56
2017-11-14T02:53:46.918Z,93.46
2017-11-14T02:53:47.494Z,93.46
2017-11-14T02:53:48.092Z,93.27
2017-11-14T02:53:48.700Z,93.56
2017-11-14T02:53:49.290Z,93.37
2017-11-14T02:53:49.889Z,93.37
2017-11-14T02:53:50.491Z,93.56
2017-11-14T02:53:51.089Z,93.46
2017-11-14T02:54:45.592Z,93.56
2017-11-14T02:54:46.169Z,93.56
2017-11-14T02:54:46.763Z,93.56
2017-11-14T02:54:47.362Z,93.56
2017-11-14T02:54:47.963Z,93.56
2017-11-14T02:54:48.563Z,93.56
2017-11-14T02:54:49.164Z,93.56
2017-11-14T02:54:49.762Z,93.46
2017-11-14T02:55:44.265Z,93.65
2017-11-14T02:55:44.840Z,93.56
2017-11-14T02:55:45.440Z,93.56
2017-11-14T02:55:46.040Z,93.56
2017-11-14T02:55:46.641Z,93.56
2017-11-14T02:55:47.240Z,93.65
2017-11-14T02:55:47.841Z,93.56
2017-11-14T02:55:48.440Z,93.56
2017-11-14T02:56:41.920Z,93.65
2017-11-14T02:56:42.498Z,93.37
2017-11-14T02:56:43.094Z,93.65
2017-11-14T02:56:43.693Z,93.46
2017-11-14T02:56:44.293Z,93.56
2017-11-14T02:56:44.894Z,93.46
2017-11-14T02:56:45.495Z,93.46
2017-11-14T02:56:46.091Z,93.37
2017-11-14T02:57:39.573Z,93.46
2017-11-14T02:57:40.146Z,93.65
2017-11-14T02:57:40.745Z,93.56
2017-11-14T02:57:41.358Z,93.46
2017-11-14T02:57:41.945Z,93.56
2017-11-14T02:57:42.570Z,93.46
2017-11-14T02:57:43.145Z,93.65
2017-11-14T02:57:43.745Z,93.56
2017-11-14T02:58:38.248Z,93.37
2017-11-14T02:58:38.820Z,93.37
2017-11-14T02:58:39.421Z,93.27
2017-11-14T02:58:40.023Z,93.37
2017-11-14T02:58:40.628Z,93.37
2017-11-14T02:58:41.225Z,93.37
2017-11-14T02:58:41.821Z,93.37
2017-11-14T02:58:42.420Z,93.27
2017-11-14T02:59:35.898Z,93.27
2017-11-14T02:59:36.475Z,93.27
2017-11-14T02:59:37.077Z,93.37
2017-11-14T02:59:37.673Z,93.27
2017-11-14T02:59:38.274Z,93.46
2017-11-14T02:59:38.877Z,93.27
2017-11-14T02:59:39.478Z,93.18
2017-11-14T02:59:40.077Z,93.37
2017-11-14T03:00:34.574Z,93.37
2017-11-14T03:00:35.149Z,93.37
2017-11-14T03:00:35.773Z,93.18
2017-11-14T03:00:36.347Z,93.27
2017-11-14T03:00:36.955Z,93.46
2017-11-14T03:00:37.548Z,93.18
2017-11-14T03:00:38.148Z,92.99
2017-11-14T03:00:38.749Z,93.27
2017-11-14T03:01:32.227Z,93.27
2017-11-14T03:01:32.801Z,93.27
2017-11-14T03:01:33.400Z,93.27
2017-11-14T03:01:34.001Z,92.99
2017-11-14T03:01:34.600Z,93.27
2017-11-14T03:01:35.199Z,93.18
2017-11-14T03:01:35.800Z,93.18
2017-11-14T03:01:36.400Z,93.27
2017-11-14T03:02:29.878Z,93.18
2017-11-14T03:02:30.452Z,93.18
2017-11-14T03:02:31.052Z,93.37
2017-11-14T03:02:31.653Z,93.46
2017-11-14T03:02:32.252Z,93.37
2017-11-14T03:02:32.853Z,92.99
2017-11-14T03:02:33.457Z,93.37
2017-11-14T03:02:34.056Z,93.37
2017-11-14T03:03:27.531Z,93.37
2017-11-14T03:03:28.106Z,93.27
2017-11-14T03:03:28.704Z,93.37
2017-11-14T03:03:29.304Z,93.27
2017-11-14T03:03:29.905Z,93.37
2017-11-14T03:03:30.506Z,93.27
2017-11-14T03:03:31.109Z,93.37
2017-11-14T03:03:31.703Z,93.27
2017-11-14T03:04:26.207Z,93.27
2017-11-14T03:04:26.779Z,93.27
2017-11-14T03:04:27.380Z,93.37
2017-11-14T03:04:27.979Z,93.27
2017-11-14T03:04:28.578Z,93.27
2017-11-14T03:04:29.180Z,93.37
2017-11-14T03:04:29.789Z,93.27
2017-11-14T03:04:30.377Z,93.37
2017-11-14T03:05:23.859Z,93.27
2017-11-14T03:05:24.433Z,93.27
2017-11-14T03:05:25.032Z,93.27
2017-11-14T03:05:25.631Z,93.27
2017-11-14T03:05:26.231Z,93.27
2017-11-14T03:05:26.832Z,93.27
2017-11-14T03:05:27.431Z,93.37
2017-11-14T03:05:28.030Z,93.27
2017-11-14T03:06:21.517Z,93.37
2017-11-14T03:06:22.085Z,93.56
2017-11-14T03:06:22.684Z,93.37
2017-11-14T03:06:23.283Z,93.56
2017-11-14T03:06:23.883Z,93.37
2017-11-14T03:06:24.482Z,93.46
2017-11-14T03:06:25.082Z,93.56
2017-11-14T03:06:25.683Z,93.37
2017-11-14T03:07:20.183Z,93.65
2017-11-14T03:07:20.758Z,93.65
2017-11-14T03:07:21.363Z,93.46
2017-11-14T03:07:21.958Z,93.56
2017-11-14T03:07:22.557Z,93.65
2017-11-14T03:07:23.157Z,93.46
2017-11-14T03:07:23.759Z,93.65
2017-11-14T03:07:24.363Z,93.65
2017-11-14T03:08:18.860Z,93.37
2017-11-14T03:08:19.435Z,93.65
2017-11-14T03:08:20.038Z,93.37
2017-11-14T03:08:20.634Z,93.56
2017-11-14T03:08:21.234Z,93.37
2017-11-14T03:08:21.834Z,93.56
2017-11-14T03:08:22.433Z,93.65
2017-11-14T03:08:23.049Z,93.37
2017-11-14T03:09:17.535Z,93.56
2017-11-14T03:09:18.111Z,93.65
2017-11-14T03:09:18.710Z,93.56
2017-11-14T03:09:19.310Z,93.56
2017-11-14T03:09:19.909Z,93.56
2017-11-14T03:09:20.511Z,93.56
2017-11-14T03:09:21.110Z,93.56
2017-11-14T03:09:21.709Z,93.56
2017-11-14T03:10:16.212Z,93.46
2017-11-14T03:10:16.785Z,93.75
2017-11-14T03:10:17.385Z,93.65
2017-11-14T03:10:17.984Z,93.65
2017-11-14T03:10:18.584Z,93.65
2017-11-14T03:10:19.184Z,93.65
2017-11-14T03:10:19.783Z,93.65
2017-11-14T03:10:20.390Z,93.65
2017-11-14T03:11:14.887Z,93.75
2017-11-14T03:11:15.469Z,93.37
2017-11-14T03:11:16.061Z,93.65
2017-11-14T03:11:16.662Z,93.56
2017-11-14T03:11:17.259Z,93.56
2017-11-14T03:11:17.865Z,93.27
2017-11-14T03:11:18.461Z,93.37
2017-11-14T03:11:19.060Z,93.27
2017-11-14T03:12:13.563Z,93.84
2017-11-14T03:12:14.137Z,93.27
2017-11-14T03:12:14.737Z,93.46
2017-11-14T03:12:15.337Z,93.46
2017-11-14T03:12:15.936Z,93.56
2017-11-14T03:12:16.538Z,93.56
2017-11-14T03:12:17.139Z,93.65
2017-11-14T03:12:17.735Z,93.56
2017-11-14T03:13:12.238Z,93.56
2017-11-14T03:13:12.814Z,93.65
2017-11-14T03:13:13.417Z,93.56
2017-11-14T03:13:14.012Z,93.56
2017-11-14T03:13:14.620Z,93.27
2017-11-14T03:13:15.212Z,93.65
2017-11-14T03:13:15.812Z,93.56
2017-11-14T03:13:16.413Z,93.56
2017-11-14T03:14:10.912Z,93.65
2017-11-14T03:14:11.488Z,93.46
2017-11-14T03:14:12.093Z,93.65
2017-11-14T03:14:12.688Z,93.46
2017-11-14T03:14:13.287Z,93.46
2017-11-14T03:14:13.888Z,93.65
2017-11-14T03:14:14.486Z,93.37
2017-11-14T03:14:15.087Z,93.46
2017-11-14T03:15:08.586Z,93.27
2017-11-14T03:15:09.143Z,93.27
2017-11-14T03:15:09.755Z,93.46
2017-11-14T03:15:10.374Z,93.37
2017-11-14T03:15:10.956Z,93.08
2017-11-14T03:15:11.553Z,93.46
2017-11-14T03:15:12.158Z,93.27
2017-11-14T03:15:12.761Z,93.08
2017-11-14T03:16:06.222Z,92.90
2017-11-14T03:16:06.792Z,93.18
2017-11-14T03:16:07.391Z,93.37
2017-11-14T03:16:07.991Z,92.90
2017-11-14T03:16:08.590Z,93.18
2017-11-14T03:16:09.189Z,92.99
2017-11-14T03:16:09.791Z,92.80
2017-11-14T03:16:10.390Z,93.18
2017-11-14T03:17:03.869Z,93.18
2017-11-14T03:17:04.445Z,93.18
2017-11-14T03:17:05.044Z,93.18
2017-11-14T03:17:05.643Z,93.18
2017-11-14T03:17:06.246Z,93.46
2017-11-14T03:17:06.852Z,93.37
2017-11-14T03:17:07.445Z,93.18
2017-11-14T03:17:08.042Z,92.99
2017-11-14T03:18:02.544Z,92.80
2017-11-14T03:18:03.119Z,92.90
2017-11-14T03:18:03.720Z,92.71
2017-11-14T03:18:04.320Z,92.80
2017-11-14T03:18:04.923Z,93.37
2017-11-14T03:18:05.517Z,92.80
2017-11-14T03:18:06.117Z,92.80
2017-11-14T03:18:06.717Z,92.80
2017-11-14T03:19:00.198Z,92.99
2017-11-14T03:19:00.772Z,92.99
2017-11-14T03:19:01.371Z,92.99
2017-11-14T03:19:01.972Z,92.99
2017-11-14T03:19:02.570Z,92.99
2017-11-14T03:19:03.170Z,92.99
2017-11-14T03:19:03.770Z,92.99
2017-11-14T03:19:04.371Z,92.99
2017-11-14T03:20:10.554Z,92.99
2017-11-14T03:20:11.125Z,93.18
2017-11-14T03:20:11.719Z,93.18
2017-11-14T03:20:12.321Z,93.18
2017-11-14T03:20:12.919Z,92.99
2017-11-14T03:20:13.518Z,93.18
2017-11-14T03:20:14.118Z,92.90
2017-11-14T03:20:14.720Z,92.99
2017-11-14T03:21:09.222Z,93.18
2017-11-14T03:21:09.797Z,92.99
2017-11-14T03:21:10.395Z,92.61
2017-11-14T03:21:10.996Z,92.99
2017-11-14T03:21:11.595Z,92.99
2017-11-14T03:21:12.227Z,92.99
2017-11-14T03:21:12.795Z,92.99
2017-11-14T03:21:13.393Z,92.99
2017-11-14T03:22:07.897Z,92.80
2017-11-14T03:22:08.472Z,92.80
2017-11-14T03:22:09.072Z,92.61
2017-11-14T03:22:09.671Z,92.61
2017-11-14T03:22:10.270Z,92.61
2017-11-14T03:22:10.869Z,92.80
2017-11-14T03:22:11.471Z,92.80
2017-11-14T03:22:12.071Z,92.71
2017-11-14T03:23:06.571Z,93.08
2017-11-14T03:23:07.147Z,92.90
2017-11-14T03:23:07.746Z,92.99
2017-11-14T03:23:08.345Z,92.99
2017-11-14T03:23:08.945Z,92.99
2017-11-14T03:23:09.545Z,93.08
2017-11-14T03:23:10.144Z,92.43
2017-11-14T03:23:10.745Z,93.08
2017-11-14T03:24:05.247Z,92.99
2017-11-14T03:24:05.823Z,93.08
2017-11-14T03:24:06.421Z,92.99
2017-11-14T03:24:07.022Z,92.99
2017-11-14T03:24:07.622Z,92.90
2017-11-14T03:24:08.221Z,92.99
2017-11-14T03:24:08.822Z,92.90
2017-11-14T03:24:09.421Z,92.99
2017-11-14T03:25:02.900Z,92.71
2017-11-14T03:25:03.475Z,92.71
2017-11-14T03:25:04.075Z,92.61
2017-11-14T03:25:04.675Z,92.71
2017-11-14T03:25:05.273Z,92.90
2017-11-14T03:25:05.874Z,92.61
2017-11-14T03:25:06.474Z,92.80
2017-11-14T03:25:07.076Z,92.61
2017-11-14T03:26:00.554Z,92.43
2017-11-14T03:26:01.128Z,92.99
2017-11-14T03:26:01.725Z,92.61
2017-11-14T03:26:02.326Z,92.52
2017-11-14T03:26:02.926Z,92.52
2017-11-14T03:26:03.525Z,92.99
2017-11-14T03:26:04.125Z,92.71
2017-11-14T03:26:04.724Z,92.76
2017-11-14T03:26:58.204Z,92.80
2017-11-14T03:26:58.780Z,93.08
2017-11-14T03:26:59.378Z,93.23
2017-11-14T03:26:59.979Z,92.80
2017-11-14T03:27:00.578Z,93.08
2017-11-14T03:27:01.176Z,92.80
2017-11-14T03:27:01.776Z,92.94
2017-11-14T03:27:02.377Z,92.76
2017-11-14T03:27:56.879Z,92.90
2017-11-14T03:27:57.455Z,92.90
2017-11-14T03:27:58.058Z,92.90
2017-11-14T03:27:58.656Z,92.94
2017-11-14T03:27:59.250Z,92.90
2017-11-14T03:27:59.852Z,92.47